Terminal Aerodrome Forecast
Issued by NWS

Home | Current Version | Previous Version | Text Only | Print | Product List | Glossary On
Versions: 1 2 3 4 5 6 7 8 9 10 11 12 13 14 15
000
FTUS42 KILM 112320
TAFCRE
TAF
KCRE 112320Z 1200/1224 22005KT P6SM SKC
     FM120800 23009KT P6SM SKC WS015/24035KT
     FM121500 24011G18KT P6SM SCT250
     FM122200 26007KT P6SM SCT080=

USA.gov is the U.S. government's official web portal to all federal, state and local government web resources and services.